createdAt,value
2022-12-26T00:00:19.275Z,7.72
2022-12-26T00:02:45.766Z,7.50
2022-12-26T00:05:12.328Z,7.49
2022-12-26T00:07:38.673Z,7.53
2022-12-26T00:10:05.528Z,7.30
2022-12-26T00:12:31.905Z,7.20
2022-12-26T00:14:58.246Z,7.35
2022-12-26T00:17:24.584Z,7.49
2022-12-26T00:19:50.927Z,7.72
2022-12-26T00:22:18.250Z,7.88
2022-12-26T00:24:44.588Z,8.24
2022-12-26T00:27:10.915Z,8.40
2022-12-26T00:29:37.252Z,8.57
2022-12-26T00:32:03.846Z,8.57
2022-12-26T00:34:30.206Z,8.81
2022-12-26T00:36:56.544Z,8.81
2022-12-26T00:39:22.855Z,8.84
2022-12-26T00:41:49.199Z,8.55
2022-12-26T00:44:15.539Z,8.59
2022-12-26T00:46:42.021Z,8.59
2022-12-26T00:49:08.416Z,8.51
2022-12-26T00:51:34.740Z,8.43
2022-12-26T00:54:01.083Z,8.50
2022-12-26T00:56:27.436Z,8.50
2022-12-26T00:58:53.819Z,8.57
2022-12-26T01:01:22.888Z,8.64
2022-12-26T01:03:50.528Z,8.57
2022-12-26T01:06:17.376Z,8.49
2022-12-26T01:08:44.428Z,8.09
2022-12-26T01:11:13.607Z,8.00
2022-12-26T01:13:39.938Z,7.95
2022-12-26T01:16:07.342Z,7.95
2022-12-26T01:18:34.339Z,7.78
2022-12-26T01:21:10.355Z,7.84
2022-12-26T01:23:36.748Z,7.89
2022-12-26T01:26:16.652Z,7.80
2022-12-26T01:28:47.673Z,7.71
2022-12-26T01:31:14.081Z,7.71
2022-12-26T01:33:40.500Z,7.86
2022-12-26T01:36:06.962Z,7.87
2022-12-26T01:38:33.296Z,7.75
2022-12-26T01:41:29.838Z,7.76
2022-12-26T01:44:02.839Z,7.57
2022-12-26T01:46:39.662Z,7.49
2022-12-26T01:49:15.167Z,7.42
2022-12-26T01:51:46.352Z,7.52
2022-12-26T01:54:38.310Z,7.60
2022-12-26T01:57:04.030Z,7.64
2022-12-26T01:59:35.359Z,7.64
2022-12-26T02:02:01.985Z,7.67
2022-12-26T02:04:59.245Z,7.76
2022-12-26T02:07:26.450Z,7.82
2022-12-26T02:09:53.195Z,7.79
2022-12-26T02:12:40.887Z,7.75
2022-12-26T02:15:13.331Z,8.00
2022-12-26T02:17:41.247Z,8.01
2022-12-26T02:20:20.742Z,7.97
2022-12-26T02:23:01.436Z,8.07
2022-12-26T02:25:30.567Z,8.05
2022-12-26T02:28:32.264Z,8.18
2022-12-26T02:31:21.888Z,8.19
2022-12-26T02:34:01.628Z,7.97
2022-12-26T02:36:50.065Z,7.93
2022-12-26T02:39:43.609Z,7.83
2022-12-26T02:42:38.198Z,7.60
2022-12-26T02:45:43.633Z,7.50
2022-12-26T02:48:13.521Z,7.49
2022-12-26T02:51:36.745Z,7.48
2022-12-26T02:54:27.881Z,7.58
2022-12-26T02:57:24.423Z,7.66
2022-12-26T03:00:24.094Z,7.86
2022-12-26T03:03:17.177Z,8.04
2022-12-26T03:06:11.268Z,8.01
2022-12-26T03:09:03.354Z,7.92
2022-12-26T03:11:58.312Z,8.04
2022-12-26T03:14:33.105Z,7.94
2022-12-26T03:17:21.313Z,7.95
2022-12-26T03:20:17.942Z,8.14
2022-12-26T03:23:18.615Z,8.33
2022-12-26T03:26:09.656Z,8.27
2022-12-26T03:28:36.072Z,8.24
2022-12-26T03:31:07.795Z,8.35
2022-12-26T03:33:57.801Z,8.29
2022-12-26T03:36:35.160Z,8.27
2022-12-26T03:39:48.433Z,8.30
2022-12-26T03:43:01.109Z,8.38
2022-12-26T03:45:58.352Z,8.47
2022-12-26T03:48:53.957Z,8.42
2022-12-26T03:51:49.991Z,8.38
2022-12-26T03:54:43.047Z,8.40
2022-12-26T03:57:36.264Z,8.39
2022-12-26T04:00:28.420Z,8.30
2022-12-26T04:03:19.054Z,8.31
2022-12-26T04:06:08.124Z,8.37
2022-12-26T04:09:09.829Z,8.38
2022-12-26T04:11:57.956Z,8.55
2022-12-26T04:14:55.436Z,8.70
2022-12-26T04:18:15.429Z,8.97
2022-12-26T04:20:47.657Z,9.18
2022-12-26T04:23:44.882Z,9.33
2022-12-26T04:26:39.299Z,9.21
2022-12-26T04:29:24.524Z,9.12
2022-12-26T04:32:29.649Z,9.08
2022-12-26T04:35:36.822Z,9.03
2022-12-26T04:38:24.382Z,9.05
2022-12-26T04:41:16.885Z,9.08
2022-12-26T04:44:03.210Z,9.01
2022-12-26T04:46:31.991Z,9.02
2022-12-26T04:49:18.600Z,9.10
2022-12-26T04:51:44.991Z,9.15
2022-12-26T04:54:11.324Z,9.16
2022-12-26T04:56:37.770Z,9.18
2022-12-26T04:59:04.182Z,9.18
2022-12-26T05:01:49.411Z,9.20
2022-12-26T05:04:36.660Z,9.24
2022-12-26T05:07:24.012Z,9.30
2022-12-26T05:09:53.284Z,9.18
2022-12-26T05:12:20.546Z,9.18
2022-12-26T05:14:46.964Z,9.19
2022-12-26T05:17:32.543Z,9.25
2022-12-26T05:20:34.638Z,9.38
2022-12-26T05:23:21.107Z,9.52
2022-12-26T05:26:07.432Z,9.59
2022-12-26T05:28:43.069Z,9.60
2022-12-26T05:31:15.563Z,9.54
2022-12-26T05:34:01.212Z,9.60
2022-12-26T05:36:34.697Z,9.72
2022-12-26T05:39:01.805Z,9.81
2022-12-26T05:41:28.171Z,9.79
2022-12-26T05:43:54.564Z,9.85
2022-12-26T05:46:20.956Z,9.90
2022-12-26T05:48:47.314Z,9.91
2022-12-26T05:51:13.942Z,9.86
2022-12-26T05:53:40.454Z,9.76
2022-12-26T05:56:12.029Z,9.73
2022-12-26T05:58:39.285Z,9.75
2022-12-26T06:01:05.824Z,9.68
2022-12-26T06:03:32.904Z,9.64
2022-12-26T06:05:59.413Z,9.66
2022-12-26T06:08:25.748Z,9.65
2022-12-26T06:10:52.076Z,9.65
2022-12-26T06:13:18.411Z,9.68
2022-12-26T06:15:44.725Z,9.72
2022-12-26T06:18:11.058Z,9.80
2022-12-26T06:20:40.533Z,9.80
2022-12-26T06:23:07.001Z,9.79
2022-12-26T06:25:33.339Z,9.66
2022-12-26T06:27:59.700Z,9.65
2022-12-26T06:30:26.071Z,9.65
2022-12-26T06:32:52.381Z,9.62
2022-12-26T06:35:18.715Z,9.64
2022-12-26T06:37:45.044Z,9.60
2022-12-26T06:40:11.413Z,9.72
2022-12-26T06:42:37.739Z,9.81
2022-12-26T06:45:04.437Z,9.90
2022-12-26T06:47:30.797Z,10.00
2022-12-26T06:49:57.155Z,9.90
2022-12-26T06:52:23.500Z,9.82
2022-12-26T06:54:49.809Z,9.88
2022-12-26T06:57:16.179Z,9.95
2022-12-26T06:59:42.640Z,9.98
2022-12-26T07:02:11.007Z,10.09
2022-12-26T07:04:37.418Z,10.04
2022-12-26T07:07:03.828Z,10.05
2022-12-26T07:09:33.800Z,9.94
2022-12-26T07:12:01.555Z,9.77
2022-12-26T07:14:27.900Z,9.78
2022-12-26T07:16:54.552Z,9.83
2022-12-26T07:19:20.956Z,9.86
2022-12-26T07:21:47.276Z,9.85
2022-12-26T07:24:19.210Z,9.86
2022-12-26T07:26:46.670Z,9.83
2022-12-26T07:29:13.984Z,9.86
2022-12-26T07:31:41.180Z,9.86
2022-12-26T07:34:08.501Z,9.85
2022-12-26T07:36:34.913Z,9.87
2022-12-26T07:39:01.244Z,9.87
2022-12-26T07:41:47.526Z,9.85
2022-12-26T07:44:13.863Z,9.83
2022-12-26T07:46:40.242Z,9.97
2022-12-26T07:49:07.564Z,10.03
2022-12-26T07:51:34.062Z,10.11
2022-12-26T07:54:03.162Z,10.16
2022-12-26T07:56:34.179Z,10.20
2022-12-26T07:59:00.548Z,10.30
2022-12-26T08:01:28.042Z,10.47
2022-12-26T08:03:54.623Z,10.77
2022-12-26T08:06:21.269Z,11.00
2022-12-26T08:08:51.041Z,11.31
2022-12-26T08:11:21.317Z,11.22
2022-12-26T08:13:47.661Z,11.42
2022-12-26T08:16:15.086Z,11.42
2022-12-26T08:18:42.333Z,11.46
2022-12-26T08:21:09.029Z,11.58
2022-12-26T08:23:35.417Z,11.47
2022-12-26T08:26:09.567Z,11.59
2022-12-26T08:28:36.324Z,11.70
2022-12-26T08:31:09.822Z,11.48
2022-12-26T08:33:36.740Z,11.42
2022-12-26T08:36:08.605Z,11.51
2022-12-26T08:38:35.423Z,11.43
2022-12-26T08:41:02.259Z,11.62
2022-12-26T08:43:53.215Z,11.79
2022-12-26T08:46:16.388Z,11.75
2022-12-26T08:48:42.853Z,11.83
2022-12-26T08:51:15.877Z,11.37
2022-12-26T08:53:42.548Z,11.20
2022-12-26T08:56:13.424Z,11.20
2022-12-26T08:58:39.804Z,11.21
2022-12-26T09:01:12.768Z,11.27
2022-12-26T09:03:40.051Z,11.19
2022-12-26T09:06:06.870Z,11.17
2022-12-26T09:08:34.827Z,11.18
2022-12-26T09:11:06.414Z,11.22
2022-12-26T09:13:33.555Z,11.21
2022-12-26T09:16:08.008Z,11.25
2022-12-26T09:18:35.109Z,11.29
2022-12-26T09:21:06.917Z,11.39
2022-12-26T09:23:35.063Z,11.39
2022-12-26T09:26:06.904Z,11.52
2022-12-26T09:28:34.507Z,11.55
2022-12-26T09:31:10.012Z,11.58
2022-12-26T09:33:37.622Z,11.63
2022-12-26T09:36:14.793Z,11.67
2022-12-26T09:38:42.692Z,11.68
2022-12-26T09:41:30.959Z,11.72
2022-12-26T09:44:25.566Z,11.81
2022-12-26T09:47:25.216Z,11.85
2022-12-26T09:50:18.658Z,11.87
2022-12-26T09:53:05.659Z,11.97
2022-12-26T09:55:42.456Z,11.90
2022-12-26T09:58:27.881Z,11.93
2022-12-26T10:01:05.585Z,11.99
2022-12-26T10:03:38.492Z,11.90
2022-12-26T10:06:15.624Z,11.77
2022-12-26T10:08:52.490Z,11.66
2022-12-26T10:11:55.263Z,11.43
2022-12-26T10:14:35.800Z,11.46
2022-12-26T10:17:11.324Z,11.42
2022-12-26T10:19:48.650Z,11.38
2022-12-26T10:22:31.398Z,11.46
2022-12-26T10:25:01.275Z,11.42
2022-12-26T10:27:31.818Z,11.43
2022-12-26T10:30:03.452Z,11.37
2022-12-26T10:32:38.235Z,11.36
2022-12-26T10:35:23.480Z,11.35
2022-12-26T10:37:52.936Z,11.31
2022-12-26T10:40:26.991Z,11.37
2022-12-26T10:42:59.434Z,11.36
2022-12-26T10:45:37.844Z,11.34
2022-12-26T10:48:04.750Z,11.39
2022-12-26T10:50:33.155Z,11.33
2022-12-26T10:53:01.177Z,11.07
2022-12-26T10:55:35.033Z,10.98
2022-12-26T10:58:13.281Z,10.86
2022-12-26T11:00:39.595Z,10.72
2022-12-26T11:03:07.431Z,10.79
2022-12-26T11:06:06.361Z,10.71
2022-12-26T11:08:43.016Z,10.67
2022-12-26T11:11:14.847Z,10.69
2022-12-26T11:13:52.628Z,10.56
2022-12-26T11:16:31.511Z,10.54
2022-12-26T11:18:58.637Z,10.47
2022-12-26T11:21:28.226Z,10.49
2022-12-26T11:24:06.819Z,10.45
2022-12-26T11:26:33.184Z,10.59
2022-12-26T11:29:14.969Z,10.53
2022-12-26T11:31:43.840Z,10.51
2022-12-26T11:34:17.194Z,10.47
2022-12-26T11:36:50.812Z,10.48
2022-12-26T11:39:30.387Z,10.47
2022-12-26T11:41:57.640Z,10.54
2022-12-26T11:44:28.520Z,10.43
2022-12-26T11:47:16.388Z,10.37
2022-12-26T11:49:49.464Z,10.42
2022-12-26T11:52:38.554Z,10.39
2022-12-26T11:55:23.319Z,10.41
2022-12-26T11:58:02.086Z,10.38
2022-12-26T12:00:29.673Z,10.36
2022-12-26T12:02:56.043Z,10.36
2022-12-26T12:05:28.226Z,10.35
2022-12-26T12:08:16.449Z,10.45
2022-12-26T12:11:17.249Z,10.36
2022-12-26T12:13:57.795Z,10.31
2022-12-26T12:16:58.115Z,10.22
2022-12-26T12:19:33.282Z,10.30
2022-12-26T12:22:37.339Z,10.34
2022-12-26T12:25:35.580Z,10.36
2022-12-26T12:28:17.517Z,10.37
2022-12-26T12:30:56.896Z,10.27
2022-12-26T12:33:46.146Z,10.32
2022-12-26T12:36:18.581Z,10.44
2022-12-26T12:39:10.658Z,10.23
2022-12-26T12:41:48.855Z,10.31
2022-12-26T12:44:30.200Z,10.26
2022-12-26T12:47:20.670Z,10.23
2022-12-26T12:49:52.914Z,10.29
2022-12-26T12:52:41.905Z,10.11
2022-12-26T12:55:20.242Z,10.08
2022-12-26T12:57:50.996Z,10.03
2022-12-26T13:00:21.716Z,10.12
2022-12-26T13:03:11.050Z,10.08
2022-12-26T13:05:57.683Z,10.00
2022-12-26T13:08:46.968Z,10.05
2022-12-26T13:11:45.680Z,10.00
2022-12-26T13:14:22.068Z,10.08
2022-12-26T13:16:55.181Z,10.06
2022-12-26T13:19:28.823Z,9.98
2022-12-26T13:22:02.200Z,10.07
2022-12-26T13:24:48.752Z,10.22
2022-12-26T13:27:21.349Z,10.17
2022-12-26T13:29:48.847Z,10.18
2022-12-26T13:32:17.396Z,10.08
2022-12-26T13:34:45.819Z,10.07
2022-12-26T13:37:39.308Z,10.08
2022-12-26T13:40:21.494Z,10.17
2022-12-26T13:43:30.427Z,9.96
2022-12-26T13:45:57.821Z,10.02
2022-12-26T13:48:27.222Z,10.07
2022-12-26T13:50:56.690Z,10.09
2022-12-26T13:53:26.176Z,10.31
2022-12-26T13:56:02.684Z,10.20
2022-12-26T13:58:31.810Z,10.16
2022-12-26T14:01:25.838Z,10.06
2022-12-26T14:04:26.383Z,10.06
2022-12-26T14:07:24.054Z,10.17
2022-12-26T14:10:16.886Z,10.20
2022-12-26T14:13:07.744Z,10.07
2022-12-26T14:15:55.423Z,10.07
2022-12-26T14:18:46.520Z,10.11
2022-12-26T14:21:29.823Z,10.25
2022-12-26T14:24:26.922Z,10.12
2022-12-26T14:27:27.351Z,10.05
2022-12-26T14:30:06.782Z,10.01
2022-12-26T14:32:43.260Z,10.03
2022-12-26T14:35:34.153Z,10.01
2022-12-26T14:38:06.349Z,10.12
2022-12-26T14:40:36.172Z,10.06
2022-12-26T14:43:10.440Z,10.08
2022-12-26T14:45:36.766Z,10.10
2022-12-26T14:48:15.045Z,9.90
2022-12-26T14:50:49.337Z,9.82
2022-12-26T14:53:24.943Z,9.85
2022-12-26T14:55:54.040Z,9.81
2022-12-26T14:58:52.167Z,9.80
2022-12-26T15:01:21.634Z,9.74
2022-12-26T15:03:58.817Z,9.97
2022-12-26T15:06:25.083Z,10.33
2022-12-26T15:09:24.457Z,10.33
2022-12-26T15:12:04.643Z,10.39
2022-12-26T15:14:55.149Z,10.28
2022-12-26T15:17:33.738Z,10.16
2022-12-26T15:20:42.290Z,10.19
2022-12-26T15:23:26.884Z,10.32
2022-12-26T15:26:11.979Z,10.36
2022-12-26T15:29:22.635Z,10.14
2022-12-26T15:32:09.621Z,10.19
2022-12-26T15:35:03.659Z,10.02
2022-12-26T15:37:51.784Z,9.93
2022-12-26T15:40:28.613Z,9.99
2022-12-26T15:43:31.168Z,9.97
2022-12-26T15:46:05.582Z,9.98
2022-12-26T15:48:50.499Z,9.88
2022-12-26T15:51:28.981Z,9.83
2022-12-26T15:54:22.752Z,9.90
2022-12-26T15:57:15.960Z,9.94
2022-12-26T15:59:57.570Z,9.91
2022-12-26T16:02:27.025Z,10.07
2022-12-26T16:05:01.171Z,10.14
2022-12-26T16:07:49.345Z,10.27
2022-12-26T16:10:28.221Z,10.01
2022-12-26T16:13:22.501Z,9.92
2022-12-26T16:15:56.810Z,10.12
2022-12-26T16:18:29.102Z,10.30
2022-12-26T16:21:17.348Z,10.46
2022-12-26T16:23:45.578Z,10.55
2022-12-26T16:26:29.049Z,10.59
2022-12-26T16:28:57.493Z,10.97
2022-12-26T16:31:26.391Z,11.18
2022-12-26T16:33:56.987Z,10.93
2022-12-26T16:36:26.854Z,10.78
2022-12-26T16:38:54.085Z,10.59
2022-12-26T16:41:27.898Z,10.33
2022-12-26T16:43:56.131Z,10.29
2022-12-26T16:46:28.714Z,10.49
2022-12-26T16:49:01.124Z,10.24
2022-12-26T16:51:54.795Z,10.26
2022-12-26T16:54:21.107Z,10.39
2022-12-26T16:56:57.227Z,10.58
2022-12-26T16:59:28.748Z,10.53
2022-12-26T17:01:57.991Z,10.29
2022-12-26T17:04:27.182Z,10.12
2022-12-26T17:06:57.521Z,10.20
2022-12-26T17:09:26.615Z,10.06
2022-12-26T17:11:58.959Z,10.02
2022-12-26T17:14:31.032Z,9.98
2022-12-26T17:17:03.835Z,9.88
2022-12-26T17:19:35.963Z,9.88
2022-12-26T17:22:20.688Z,9.95
2022-12-26T17:24:51.606Z,9.94
2022-12-26T17:27:24.881Z,9.97
2022-12-26T17:30:00.452Z,9.89
2022-12-26T17:32:36.390Z,9.97
2022-12-26T17:35:06.518Z,9.99
2022-12-26T17:37:33.792Z,9.99
2022-12-26T17:40:19.693Z,10.09
2022-12-26T17:42:52.790Z,10.11
2022-12-26T17:45:25.229Z,10.17
2022-12-26T17:47:53.751Z,10.12
2022-12-26T17:50:21.654Z,10.13
2022-12-26T17:52:48.413Z,10.15
2022-12-26T17:55:20.956Z,10.15
2022-12-26T17:57:48.679Z,10.17
2022-12-26T18:00:18.362Z,10.20
2022-12-26T18:02:44.863Z,10.21
2022-12-26T18:05:11.779Z,10.18
2022-12-26T18:07:38.199Z,10.25
2022-12-26T18:10:05.134Z,10.27
2022-12-26T18:12:31.456Z,10.25
2022-12-26T18:15:02.205Z,10.28
2022-12-26T18:17:31.909Z,10.28
2022-12-26T18:19:58.885Z,10.32
2022-12-26T18:22:25.272Z,10.36
2022-12-26T18:24:51.673Z,10.39
2022-12-26T18:27:27.235Z,10.42
2022-12-26T18:29:53.622Z,10.42
2022-12-26T18:32:24.560Z,10.43
2022-12-26T18:34:51.646Z,10.42
2022-12-26T18:37:18.688Z,10.43
2022-12-26T18:39:45.293Z,10.47
2022-12-26T18:42:13.783Z,10.47
2022-12-26T18:44:41.023Z,10.46
2022-12-26T18:47:09.469Z,10.50
2022-12-26T18:49:35.812Z,10.47
2022-12-26T18:52:02.188Z,10.50
2022-12-26T18:54:28.519Z,10.48
2022-12-26T18:56:54.898Z,10.44
2022-12-26T18:59:21.248Z,10.45
2022-12-26T19:01:47.727Z,10.52
2022-12-26T19:04:17.540Z,10.52
2022-12-26T19:06:43.885Z,10.51
2022-12-26T19:09:14.229Z,10.52
2022-12-26T19:11:42.066Z,10.53
2022-12-26T19:14:16.186Z,10.57
2022-12-26T19:16:42.679Z,10.58
2022-12-26T19:19:09.171Z,10.65
2022-12-26T19:21:35.549Z,10.63
2022-12-26T19:24:01.943Z,10.59
2022-12-26T19:26:28.368Z,10.58
2022-12-26T19:28:55.822Z,10.49
2022-12-26T19:31:23.670Z,10.42
2022-12-26T19:33:50.123Z,10.39
2022-12-26T19:36:17.347Z,10.35
2022-12-26T19:38:43.810Z,10.28
2022-12-26T19:41:12.796Z,10.27
2022-12-26T19:43:40.117Z,10.20
2022-12-26T19:46:11.184Z,10.15
2022-12-26T19:48:38.719Z,10.12
2022-12-26T19:51:08.333Z,10.09
2022-12-26T19:53:36.181Z,10.04
2022-12-26T19:56:10.900Z,9.97
2022-12-26T19:58:37.920Z,9.93
2022-12-26T20:01:16.285Z,9.89
2022-12-26T20:03:44.417Z,9.79
2022-12-26T20:06:14.984Z,9.80
2022-12-26T20:08:42.556Z,9.73
2022-12-26T20:11:14.883Z,9.65
2022-12-26T20:13:42.988Z,9.70
2022-12-26T20:16:45.995Z,9.73
2022-12-26T20:19:01.156Z,9.66
2022-12-26T20:21:27.816Z,9.67
2022-12-26T20:23:54.179Z,9.65
2022-12-26T20:26:23.239Z,9.55
2022-12-26T20:28:50.681Z,9.53
2022-12-26T20:31:21.119Z,9.51
2022-12-26T20:33:49.441Z,9.47
2022-12-26T20:36:19.919Z,9.38
2022-12-26T20:38:46.548Z,9.32
2022-12-26T20:41:13.215Z,9.34
2022-12-26T20:43:40.521Z,9.31
2022-12-26T20:46:16.933Z,9.26
2022-12-26T20:48:44.127Z,9.24
2022-12-26T20:51:13.795Z,9.20
2022-12-26T20:53:41.361Z,9.26
2022-12-26T20:56:08.309Z,9.20
2022-12-26T20:58:35.614Z,9.19
2022-12-26T21:01:07.249Z,9.18
2022-12-26T21:03:35.123Z,9.09
2022-12-26T21:06:13.225Z,9.03
2022-12-26T21:08:41.481Z,9.03
2022-12-26T21:11:16.253Z,8.94
2022-12-26T21:13:44.365Z,8.93
2022-12-26T21:16:16.159Z,8.98
2022-12-26T21:18:42.546Z,9.08
2022-12-26T21:21:15.228Z,9.08
2022-12-26T21:23:42.069Z,9.05
2022-12-26T21:26:09.338Z,8.95
2022-12-26T21:28:36.365Z,9.00
2022-12-26T21:31:03.424Z,9.08
2022-12-26T21:33:30.837Z,9.02
2022-12-26T21:35:57.297Z,8.98
2022-12-26T21:38:27.294Z,8.98
2022-12-26T21:40:53.621Z,9.10
2022-12-26T21:43:19.957Z,9.16
2022-12-26T21:45:46.287Z,9.20
2022-12-26T21:48:12.624Z,9.20
2022-12-26T21:50:44.013Z,9.24
2022-12-26T21:53:10.874Z,9.39
2022-12-26T21:55:38.561Z,9.18
2022-12-26T21:58:07.351Z,9.04
2022-12-26T22:00:35.260Z,8.95
2022-12-26T22:03:21.548Z,9.03
2022-12-26T22:05:48.222Z,8.99
2022-12-26T22:08:15.077Z,8.94
2022-12-26T22:11:04.993Z,9.10
2022-12-26T22:13:39.544Z,9.13
2022-12-26T22:16:08.522Z,8.99
2022-12-26T22:18:43.247Z,8.91
2022-12-26T22:21:13.571Z,8.78
2022-12-26T22:23:40.764Z,8.79
2022-12-26T22:26:08.493Z,8.82
2022-12-26T22:28:34.921Z,8.81
2022-12-26T22:31:01.626Z,8.85
2022-12-26T22:33:28.844Z,8.86
2022-12-26T22:35:55.777Z,8.85
2022-12-26T22:38:22.272Z,8.79
2022-12-26T22:40:59.299Z,8.88
2022-12-26T22:43:26.568Z,8.89
2022-12-26T22:45:53.513Z,8.84
2022-12-26T22:48:20.313Z,8.81
2022-12-26T22:50:50.689Z,8.94
2022-12-26T22:53:17.039Z,9.00
2022-12-26T22:55:57.582Z,9.03
2022-12-26T22:58:24.016Z,9.04
2022-12-26T23:00:50.383Z,8.95
2022-12-26T23:03:16.859Z,8.99
2022-12-26T23:05:43.774Z,9.03
2022-12-26T23:08:17.266Z,9.13
2022-12-26T23:10:44.401Z,9.21
2022-12-26T23:13:12.590Z,9.32
2022-12-26T23:15:50.062Z,9.14
2022-12-26T23:18:51.140Z,9.10
2022-12-26T23:21:43.715Z,9.02
2022-12-26T23:24:18.128Z,8.91
2022-12-26T23:27:20.833Z,8.91
2022-12-26T23:30:06.658Z,9.05
2022-12-26T23:32:34.345Z,9.02
2022-12-26T23:35:00.921Z,8.86
2022-12-26T23:37:27.252Z,8.90
2022-12-26T23:39:53.583Z,8.95
2022-12-26T23:42:19.908Z,8.84
2022-12-26T23:44:46.283Z,8.88
2022-12-26T23:47:12.624Z,8.82
2022-12-26T23:49:39.059Z,8.84
2022-12-26T23:52:05.467Z,8.78
2022-12-26T23:54:31.824Z,8.94
2022-12-26T23:56:58.520Z,8.82
2022-12-26T23:59:24.995Z,8.76
